sensor_id;sensor_type;location;lat;lon;timestamp;P1;durP1;ratioP1;P2;durP2;ratioP2
3779;SDS011;1905;52.482;9.802;2023-11-18T00:00:08;8.97;;;3.93;;
3779;SDS011;1905;52.482;9.802;2023-11-18T00:02:39;11.70;;;5.07;;
3779;SDS011;1905;52.482;9.802;2023-11-18T00:05:09;10.07;;;3.80;;
3779;SDS011;1905;52.482;9.802;2023-11-18T00:07:37;8.77;;;3.33;;
3779;SDS011;1905;52.482;9.802;2023-11-18T00:10:05;8.93;;;3.83;;
3779;SDS011;1905;52.482;9.802;2023-11-18T00:12:36;12.23;;;4.70;;
3779;SDS011;1905;52.482;9.802;2023-11-18T00:15:07;10.13;;;4.10;;
3779;SDS011;1905;52.482;9.802;2023-11-18T00:17:38;11.43;;;3.90;;
3779;SDS011;1905;52.482;9.802;2023-11-18T00:20:06;7.73;;;3.80;;
3779;SDS011;1905;52.482;9.802;2023-11-18T00:22:37;10.63;;;4.90;;
3779;SDS011;1905;52.482;9.802;2023-11-18T00:25:06;8.63;;;3.87;;
3779;SDS011;1905;52.482;9.802;2023-11-18T00:27:36;10.90;;;3.80;;
3779;SDS011;1905;52.482;9.802;2023-11-18T00:30:04;8.93;;;3.53;;
3779;SDS011;1905;52.482;9.802;2023-11-18T00:32:34;9.73;;;3.80;;
3779;SDS011;1905;52.482;9.802;2023-11-18T00:35:03;8.43;;;3.20;;
3779;SDS011;1905;52.482;9.802;2023-11-18T00:37:31;9.20;;;3.10;;
3779;SDS011;1905;52.482;9.802;2023-11-18T00:39:59;9.87;;;4.10;;
3779;SDS011;1905;52.482;9.802;2023-11-18T00:42:27;9.13;;;4.30;;
3779;SDS011;1905;52.482;9.802;2023-11-18T00:44:56;11.90;;;3.73;;
3779;SDS011;1905;52.482;9.802;2023-11-18T00:47:24;9.43;;;4.50;;
3779;SDS011;1905;52.482;9.802;2023-11-18T00:49:52;8.57;;;4.33;;
3779;SDS011;1905;52.482;9.802;2023-11-18T00:52:21;8.27;;;3.70;;
3779;SDS011;1905;52.482;9.802;2023-11-18T00:54:48;9.70;;;3.83;;
3779;SDS011;1905;52.482;9.802;2023-11-18T00:57:16;10.17;;;4.03;;
3779;SDS011;1905;52.482;9.802;2023-11-18T00:59:45;8.80;;;3.50;;
3779;SDS011;1905;52.482;9.802;2023-11-18T01:02:14;9.43;;;3.63;;
3779;SDS011;1905;52.482;9.802;2023-11-18T01:04:43;9.17;;;3.67;;
3779;SDS011;1905;52.482;9.802;2023-11-18T01:07:12;7.90;;;2.93;;
3779;SDS011;1905;52.482;9.802;2023-11-18T01:09:40;11.23;;;4.43;;
3779;SDS011;1905;52.482;9.802;2023-11-18T01:12:07;8.70;;;3.37;;
3779;SDS011;1905;52.482;9.802;2023-11-18T01:14:37;6.90;;;2.63;;
3779;SDS011;1905;52.482;9.802;2023-11-18T01:17:06;9.40;;;2.83;;
3779;SDS011;1905;52.482;9.802;2023-11-18T01:19:36;9.13;;;3.53;;
3779;SDS011;1905;52.482;9.802;2023-11-18T01:22:04;7.20;;;2.80;;
3779;SDS011;1905;52.482;9.802;2023-11-18T01:24:33;7.73;;;3.20;;
3779;SDS011;1905;52.482;9.802;2023-11-18T01:27:01;7.53;;;3.27;;
3779;SDS011;1905;52.482;9.802;2023-11-18T01:29:28;8.83;;;2.73;;
3779;SDS011;1905;52.482;9.802;2023-11-18T01:31:57;6.63;;;2.73;;
3779;SDS011;1905;52.482;9.802;2023-11-18T01:34:25;8.23;;;3.23;;
3779;SDS011;1905;52.482;9.802;2023-11-18T01:36:56;8.80;;;2.60;;
3779;SDS011;1905;52.482;9.802;2023-11-18T01:39:24;8.40;;;3.57;;
3779;SDS011;1905;52.482;9.802;2023-11-18T01:41:53;10.17;;;4.07;;
3779;SDS011;1905;52.482;9.802;2023-11-18T01:44:20;7.37;;;3.17;;
3779;SDS011;1905;52.482;9.802;2023-11-18T01:46:50;8.77;;;3.30;;
3779;SDS011;1905;52.482;9.802;2023-11-18T01:49:19;8.63;;;3.70;;
3779;SDS011;1905;52.482;9.802;2023-11-18T01:51:47;9.17;;;3.17;;
3779;SDS011;1905;52.482;9.802;2023-11-18T01:54:18;8.80;;;2.43;;
3779;SDS011;1905;52.482;9.802;2023-11-18T01:56:47;7.90;;;3.13;;
3779;SDS011;1905;52.482;9.802;2023-11-18T01:59:15;7.47;;;2.77;;
3779;SDS011;1905;52.482;9.802;2023-11-18T02:01:46;10.33;;;5.00;;
3779;SDS011;1905;52.482;9.802;2023-11-18T02:04:16;7.27;;;3.00;;
3779;SDS011;1905;52.482;9.802;2023-11-18T02:06:47;9.03;;;3.50;;
3779;SDS011;1905;52.482;9.802;2023-11-18T02:09:18;8.77;;;3.20;;
3779;SDS011;1905;52.482;9.802;2023-11-18T02:11:56;10.20;;;4.00;;
3779;SDS011;1905;52.482;9.802;2023-11-18T02:14:31;8.17;;;3.20;;
3779;SDS011;1905;52.482;9.802;2023-11-18T02:17:03;9.90;;;3.77;;
3779;SDS011;1905;52.482;9.802;2023-11-18T02:19:32;13.20;;;4.30;;
3779;SDS011;1905;52.482;9.802;2023-11-18T02:22:02;10.17;;;4.63;;
3779;SDS011;1905;52.482;9.802;2023-11-18T02:24:35;11.40;;;5.00;;
3779;SDS011;1905;52.482;9.802;2023-11-18T02:27:05;12.50;;;5.33;;
3779;SDS011;1905;52.482;9.802;2023-11-18T02:29:34;14.50;;;5.97;;
3779;SDS011;1905;52.482;9.802;2023-11-18T02:32:05;13.50;;;5.67;;
3779;SDS011;1905;52.482;9.802;2023-11-18T02:34:39;12.30;;;6.07;;
3779;SDS011;1905;52.482;9.802;2023-11-18T02:37:15;16.93;;;7.50;;
3779;SDS011;1905;52.482;9.802;2023-11-18T02:39:44;14.90;;;7.00;;
3779;SDS011;1905;52.482;9.802;2023-11-18T02:42:18;23.87;;;8.97;;
3779;SDS011;1905;52.482;9.802;2023-11-18T02:44:49;19.13;;;8.57;;
3779;SDS011;1905;52.482;9.802;2023-11-18T02:47:25;16.73;;;6.93;;
3779;SDS011;1905;52.482;9.802;2023-11-18T02:49:54;20.90;;;10.10;;
3779;SDS011;1905;52.482;9.802;2023-11-18T02:52:32;16.87;;;8.33;;
3779;SDS011;1905;52.482;9.802;2023-11-18T02:55:00;23.67;;;10.37;;
3779;SDS011;1905;52.482;9.802;2023-11-18T02:57:30;27.83;;;10.77;;
3779;SDS011;1905;52.482;9.802;2023-11-18T02:59:59;17.07;;;8.10;;
3779;SDS011;1905;52.482;9.802;2023-11-18T03:02:27;25.03;;;10.90;;
3779;SDS011;1905;52.482;9.802;2023-11-18T03:04:57;17.47;;;8.53;;
3779;SDS011;1905;52.482;9.802;2023-11-18T03:07:25;22.33;;;10.03;;
3779;SDS011;1905;52.482;9.802;2023-11-18T03:09:54;24.50;;;10.27;;
3779;SDS011;1905;52.482;9.802;2023-11-18T03:12:23;21.00;;;9.93;;
3779;SDS011;1905;52.482;9.802;2023-11-18T03:14:55;17.23;;;9.20;;
3779;SDS011;1905;52.482;9.802;2023-11-18T03:17:24;24.27;;;10.63;;
3779;SDS011;1905;52.482;9.802;2023-11-18T03:19:51;19.80;;;8.17;;
3779;SDS011;1905;52.482;9.802;2023-11-18T03:22:19;20.73;;;8.50;;
3779;SDS011;1905;52.482;9.802;2023-11-18T03:24:47;21.30;;;10.20;;
3779;SDS011;1905;52.482;9.802;2023-11-18T03:27:16;18.67;;;9.10;;
3779;SDS011;1905;52.482;9.802;2023-11-18T03:29:46;16.87;;;8.30;;
3779;SDS011;1905;52.482;9.802;2023-11-18T03:32:19;26.47;;;10.20;;
3779;SDS011;1905;52.482;9.802;2023-11-18T03:34:46;21.47;;;10.20;;
3779;SDS011;1905;52.482;9.802;2023-11-18T03:37:15;21.50;;;10.60;;
3779;SDS011;1905;52.482;9.802;2023-11-18T03:39:42;23.63;;;10.50;;
3779;SDS011;1905;52.482;9.802;2023-11-18T03:42:12;19.63;;;9.00;;
3779;SDS011;1905;52.482;9.802;2023-11-18T03:44:42;22.90;;;9.53;;
3779;SDS011;1905;52.482;9.802;2023-11-18T03:47:13;20.23;;;9.10;;
3779;SDS011;1905;52.482;9.802;2023-11-18T03:49:43;18.47;;;8.93;;
3779;SDS011;1905;52.482;9.802;2023-11-18T03:52:11;15.17;;;8.23;;
3779;SDS011;1905;52.482;9.802;2023-11-18T03:54:38;24.10;;;11.27;;
3779;SDS011;1905;52.482;9.802;2023-11-18T03:57:06;22.67;;;11.33;;
3779;SDS011;1905;52.482;9.802;2023-11-18T03:59:34;21.90;;;10.50;;
3779;SDS011;1905;52.482;9.802;2023-11-18T04:02:02;22.63;;;9.80;;
3779;SDS011;1905;52.482;9.802;2023-11-18T04:04:30;17.27;;;9.40;;
3779;SDS011;1905;52.482;9.802;2023-11-18T04:06:59;17.33;;;9.00;;
3779;SDS011;1905;52.482;9.802;2023-11-18T04:09:27;15.07;;;7.53;;
3779;SDS011;1905;52.482;9.802;2023-11-18T04:11:56;22.90;;;10.60;;
3779;SDS011;1905;52.482;9.802;2023-11-18T04:14:25;21.40;;;9.10;;
3779;SDS011;1905;52.482;9.802;2023-11-18T04:16:53;19.87;;;8.67;;
3779;SDS011;1905;52.482;9.802;2023-11-18T04:19:22;18.80;;;8.90;;
3779;SDS011;1905;52.482;9.802;2023-11-18T04:21:49;20.30;;;10.10;;
3779;SDS011;1905;52.482;9.802;2023-11-18T04:24:19;18.23;;;8.20;;
3779;SDS011;1905;52.482;9.802;2023-11-18T04:26:46;21.87;;;9.60;;
3779;SDS011;1905;52.482;9.802;2023-11-18T04:29:15;22.97;;;10.37;;
3779;SDS011;1905;52.482;9.802;2023-11-18T04:31:44;21.43;;;9.17;;
3779;SDS011;1905;52.482;9.802;2023-11-18T04:34:12;22.57;;;11.50;;
3779;SDS011;1905;52.482;9.802;2023-11-18T04:36:40;28.40;;;11.87;;
3779;SDS011;1905;52.482;9.802;2023-11-18T04:39:09;21.33;;;10.07;;
3779;SDS011;1905;52.482;9.802;2023-11-18T04:41:40;19.30;;;10.20;;
3779;SDS011;1905;52.482;9.802;2023-11-18T04:44:08;21.57;;;9.53;;
3779;SDS011;1905;52.482;9.802;2023-11-18T04:46:36;19.60;;;9.67;;
3779;SDS011;1905;52.482;9.802;2023-11-18T04:49:04;17.20;;;8.93;;
3779;SDS011;1905;52.482;9.802;2023-11-18T04:51:32;23.10;;;11.20;;
3779;SDS011;1905;52.482;9.802;2023-11-18T04:54:00;23.53;;;10.27;;
3779;SDS011;1905;52.482;9.802;2023-11-18T04:56:29;19.67;;;10.27;;
3779;SDS011;1905;52.482;9.802;2023-11-18T04:58:58;23.77;;;9.37;;
3779;SDS011;1905;52.482;9.802;2023-11-18T05:01:26;18.23;;;9.27;;
3779;SDS011;1905;52.482;9.802;2023-11-18T05:03:54;29.80;;;12.47;;
3779;SDS011;1905;52.482;9.802;2023-11-18T05:06:22;21.20;;;10.27;;
3779;SDS011;1905;52.482;9.802;2023-11-18T05:08:49;18.30;;;9.07;;
3779;SDS011;1905;52.482;9.802;2023-11-18T05:11:17;23.23;;;11.27;;
3779;SDS011;1905;52.482;9.802;2023-11-18T05:13:45;23.50;;;12.03;;
3779;SDS011;1905;52.482;9.802;2023-11-18T05:16:14;19.00;;;9.73;;
3779;SDS011;1905;52.482;9.802;2023-11-18T05:18:42;22.10;;;12.03;;
3779;SDS011;1905;52.482;9.802;2023-11-18T05:21:10;19.70;;;9.40;;
3779;SDS011;1905;52.482;9.802;2023-11-18T05:23:38;24.60;;;11.77;;
3779;SDS011;1905;52.482;9.802;2023-11-18T05:26:05;23.23;;;10.50;;
3779;SDS011;1905;52.482;9.802;2023-11-18T05:28:33;24.83;;;12.10;;
3779;SDS011;1905;52.482;9.802;2023-11-18T05:31:01;19.40;;;11.83;;
3779;SDS011;1905;52.482;9.802;2023-11-18T05:33:31;28.13;;;12.30;;
3779;SDS011;1905;52.482;9.802;2023-11-18T05:36:00;27.23;;;12.00;;
3779;SDS011;1905;52.482;9.802;2023-11-18T05:38:31;27.73;;;12.97;;
3779;SDS011;1905;52.482;9.802;2023-11-18T05:41:01;26.73;;;12.00;;
3779;SDS011;1905;52.482;9.802;2023-11-18T05:43:31;24.17;;;10.43;;
3779;SDS011;1905;52.482;9.802;2023-11-18T05:46:06;28.87;;;12.93;;
3779;SDS011;1905;52.482;9.802;2023-11-18T05:48:48;26.47;;;13.00;;
3779;SDS011;1905;52.482;9.802;2023-11-18T05:51:18;21.97;;;11.17;;
3779;SDS011;1905;52.482;9.802;2023-11-18T05:53:47;25.87;;;11.37;;
3779;SDS011;1905;52.482;9.802;2023-11-18T05:56:16;26.67;;;11.83;;
3779;SDS011;1905;52.482;9.802;2023-11-18T05:58:44;29.60;;;13.20;;
3779;SDS011;1905;52.482;9.802;2023-11-18T06:01:13;25.20;;;11.00;;
3779;SDS011;1905;52.482;9.802;2023-11-18T06:03:43;21.03;;;9.97;;
3779;SDS011;1905;52.482;9.802;2023-11-18T06:06:14;27.83;;;14.10;;
3779;SDS011;1905;52.482;9.802;2023-11-18T06:08:49;25.40;;;12.10;;
3779;SDS011;1905;52.482;9.802;2023-11-18T06:11:17;35.47;;;15.13;;
3779;SDS011;1905;52.482;9.802;2023-11-18T06:13:46;27.33;;;13.80;;
3779;SDS011;1905;52.482;9.802;2023-11-18T06:16:15;24.93;;;13.00;;
3779;SDS011;1905;52.482;9.802;2023-11-18T06:18:47;28.83;;;14.40;;
3779;SDS011;1905;52.482;9.802;2023-11-18T06:21:18;22.90;;;11.47;;
3779;SDS011;1905;52.482;9.802;2023-11-18T06:23:50;27.20;;;12.87;;
3779;SDS011;1905;52.482;9.802;2023-11-18T06:26:18;23.67;;;11.90;;
3779;SDS011;1905;52.482;9.802;2023-11-18T06:28:47;30.53;;;13.63;;
3779;SDS011;1905;52.482;9.802;2023-11-18T06:31:16;36.50;;;14.47;;
3779;SDS011;1905;52.482;9.802;2023-11-18T06:33:45;31.97;;;14.43;;
3779;SDS011;1905;52.482;9.802;2023-11-18T06:36:17;28.63;;;14.60;;
3779;SDS011;1905;52.482;9.802;2023-11-18T06:38:45;30.47;;;14.00;;
3779;SDS011;1905;52.482;9.802;2023-11-18T06:41:16;30.13;;;13.40;;
3779;SDS011;1905;52.482;9.802;2023-11-18T06:43:45;31.50;;;13.80;;
3779;SDS011;1905;52.482;9.802;2023-11-18T06:46:24;26.20;;;12.37;;
3779;SDS011;1905;52.482;9.802;2023-11-18T06:48:55;26.10;;;13.00;;
3779;SDS011;1905;52.482;9.802;2023-11-18T06:51:26;27.93;;;15.37;;
3779;SDS011;1905;52.482;9.802;2023-11-18T06:53:54;29.83;;;15.10;;
3779;SDS011;1905;52.482;9.802;2023-11-18T06:56:22;25.27;;;12.07;;
3779;SDS011;1905;52.482;9.802;2023-11-18T06:58:50;37.90;;;12.43;;
3779;SDS011;1905;52.482;9.802;2023-11-18T07:01:18;25.57;;;11.80;;
3779;SDS011;1905;52.482;9.802;2023-11-18T07:03:47;32.50;;;15.60;;
3779;SDS011;1905;52.482;9.802;2023-11-18T07:06:19;25.23;;;12.30;;
3779;SDS011;1905;52.482;9.802;2023-11-18T07:08:51;29.60;;;13.03;;
3779;SDS011;1905;52.482;9.802;2023-11-18T07:11:19;25.90;;;11.90;;
3779;SDS011;1905;52.482;9.802;2023-11-18T07:13:48;33.53;;;15.47;;
3779;SDS011;1905;52.482;9.802;2023-11-18T07:16:16;27.83;;;13.07;;
3779;SDS011;1905;52.482;9.802;2023-11-18T07:18:45;26.43;;;12.77;;
3779;SDS011;1905;52.482;9.802;2023-11-18T07:21:13;25.77;;;13.53;;
3779;SDS011;1905;52.482;9.802;2023-11-18T07:23:40;26.47;;;12.83;;
3779;SDS011;1905;52.482;9.802;2023-11-18T07:26:10;25.43;;;12.47;;
3779;SDS011;1905;52.482;9.802;2023-11-18T07:28:40;29.53;;;12.30;;
3779;SDS011;1905;52.482;9.802;2023-11-18T07:31:08;25.17;;;13.20;;
3779;SDS011;1905;52.482;9.802;2023-11-18T07:33:35;19.23;;;10.43;;
3779;SDS011;1905;52.482;9.802;2023-11-18T07:36:03;29.27;;;13.80;;
3779;SDS011;1905;52.482;9.802;2023-11-18T07:38:32;26.77;;;13.03;;
3779;SDS011;1905;52.482;9.802;2023-11-18T07:41:01;26.20;;;12.23;;
3779;SDS011;1905;52.482;9.802;2023-11-18T07:43:30;28.80;;;12.40;;
3779;SDS011;1905;52.482;9.802;2023-11-18T07:45:59;24.17;;;11.50;;
3779;SDS011;1905;52.482;9.802;2023-11-18T07:48:28;24.53;;;11.70;;
3779;SDS011;1905;52.482;9.802;2023-11-18T07:50:57;25.27;;;12.53;;
3779;SDS011;1905;52.482;9.802;2023-11-18T07:53:25;28.30;;;13.30;;
3779;SDS011;1905;52.482;9.802;2023-11-18T07:55:55;27.40;;;13.07;;
3779;SDS011;1905;52.482;9.802;2023-11-18T07:58:23;24.13;;;11.70;;
3779;SDS011;1905;52.482;9.802;2023-11-18T08:00:52;23.27;;;11.77;;
3779;SDS011;1905;52.482;9.802;2023-11-18T08:03:21;26.53;;;12.50;;
3779;SDS011;1905;52.482;9.802;2023-11-18T08:05:48;24.67;;;13.40;;
3779;SDS011;1905;52.482;9.802;2023-11-18T08:08:17;27.60;;;12.67;;
3779;SDS011;1905;52.482;9.802;2023-11-18T08:10:45;30.07;;;13.10;;
3779;SDS011;1905;52.482;9.802;2023-11-18T08:13:14;30.77;;;14.60;;
3779;SDS011;1905;52.482;9.802;2023-11-18T08:15:42;34.17;;;15.07;;
3779;SDS011;1905;52.482;9.802;2023-11-18T08:18:13;27.03;;;13.97;;
3779;SDS011;1905;52.482;9.802;2023-11-18T08:20:41;34.60;;;15.00;;
3779;SDS011;1905;52.482;9.802;2023-11-18T08:23:09;33.73;;;15.03;;
3779;SDS011;1905;52.482;9.802;2023-11-18T08:25:37;28.80;;;14.60;;
3779;SDS011;1905;52.482;9.802;2023-11-18T08:28:06;31.70;;;15.23;;
3779;SDS011;1905;52.482;9.802;2023-11-18T08:30:34;33.37;;;16.17;;
3779;SDS011;1905;52.482;9.802;2023-11-18T08:33:05;36.57;;;15.03;;
3779;SDS011;1905;52.482;9.802;2023-11-18T08:35:36;36.53;;;15.57;;
3779;SDS011;1905;52.482;9.802;2023-11-18T08:38:04;35.70;;;13.83;;
3779;SDS011;1905;52.482;9.802;2023-11-18T08:40:34;36.73;;;16.60;;
3779;SDS011;1905;52.482;9.802;2023-11-18T08:43:02;43.43;;;16.20;;
3779;SDS011;1905;52.482;9.802;2023-11-18T08:45:31;37.03;;;15.50;;
3779;SDS011;1905;52.482;9.802;2023-11-18T08:48:01;36.60;;;15.90;;
3779;SDS011;1905;52.482;9.802;2023-11-18T08:50:33;38.30;;;15.47;;
3779;SDS011;1905;52.482;9.802;2023-11-18T08:53:03;39.27;;;16.67;;
3779;SDS011;1905;52.482;9.802;2023-11-18T08:55:32;40.33;;;17.23;;
3779;SDS011;1905;52.482;9.802;2023-11-18T08:58:09;36.10;;;15.97;;
3779;SDS011;1905;52.482;9.802;2023-11-18T09:00:47;45.00;;;15.97;;
3779;SDS011;1905;52.482;9.802;2023-11-18T09:03:19;38.80;;;19.03;;
3779;SDS011;1905;52.482;9.802;2023-11-18T09:05:56;39.00;;;16.50;;
3779;SDS011;1905;52.482;9.802;2023-11-18T09:10:58;46.30;;;18.67;;
3779;SDS011;1905;52.482;9.802;2023-11-18T09:13:27;36.07;;;18.07;;
3779;SDS011;1905;52.482;9.802;2023-11-18T09:15:56;46.93;;;17.13;;
3779;SDS011;1905;52.482;9.802;2023-11-18T09:18:24;35.90;;;16.70;;
3779;SDS011;1905;52.482;9.802;2023-11-18T09:20:53;43.07;;;17.40;;
3779;SDS011;1905;52.482;9.802;2023-11-18T09:23:21;45.67;;;18.70;;
3779;SDS011;1905;52.482;9.802;2023-11-18T09:25:53;37.17;;;15.30;;
3779;SDS011;1905;52.482;9.802;2023-11-18T09:28:23;39.83;;;16.80;;
3779;SDS011;1905;52.482;9.802;2023-11-18T09:30:51;38.63;;;17.57;;
3779;SDS011;1905;52.482;9.802;2023-11-18T09:33:20;46.33;;;16.70;;
3779;SDS011;1905;52.482;9.802;2023-11-18T09:35:59;38.70;;;16.60;;
3779;SDS011;1905;52.482;9.802;2023-11-18T09:38:28;45.43;;;17.23;;
3779;SDS011;1905;52.482;9.802;2023-11-18T09:40:57;39.93;;;19.50;;
3779;SDS011;1905;52.482;9.802;2023-11-18T09:43:29;45.23;;;19.90;;
3779;SDS011;1905;52.482;9.802;2023-11-18T09:46:02;38.20;;;17.40;;
3779;SDS011;1905;52.482;9.802;2023-11-18T09:48:40;44.53;;;16.00;;
3779;SDS011;1905;52.482;9.802;2023-11-18T09:51:14;40.93;;;15.77;;
3779;SDS011;1905;52.482;9.802;2023-11-18T09:53:49;41.03;;;18.57;;
3779;SDS011;1905;52.482;9.802;2023-11-18T09:56:22;43.13;;;17.73;;
3779;SDS011;1905;52.482;9.802;2023-11-18T09:59:07;41.40;;;17.37;;
3779;SDS011;1905;52.482;9.802;2023-11-18T10:01:43;46.33;;;19.37;;
3779;SDS011;1905;52.482;9.802;2023-11-18T10:04:13;53.47;;;21.03;;
3779;SDS011;1905;52.482;9.802;2023-11-18T10:06:44;42.13;;;17.97;;
3779;SDS011;1905;52.482;9.802;2023-11-18T10:09:15;41.13;;;18.43;;
3779;SDS011;1905;52.482;9.802;2023-11-18T10:11:47;42.83;;;18.70;;
3779;SDS011;1905;52.482;9.802;2023-11-18T10:14:15;38.20;;;17.30;;
3779;SDS011;1905;52.482;9.802;2023-11-18T10:16:43;40.90;;;17.27;;
3779;SDS011;1905;52.482;9.802;2023-11-18T10:19:13;36.00;;;16.60;;
3779;SDS011;1905;52.482;9.802;2023-11-18T10:21:45;48.30;;;17.40;;
3779;SDS011;1905;52.482;9.802;2023-11-18T10:24:16;45.40;;;16.60;;
3779;SDS011;1905;52.482;9.802;2023-11-18T10:26:55;35.77;;;16.13;;
3779;SDS011;1905;52.482;9.802;2023-11-18T10:29:24;33.00;;;14.77;;
3779;SDS011;1905;52.482;9.802;2023-11-18T10:32:03;28.30;;;14.73;;
3779;SDS011;1905;52.482;9.802;2023-11-18T10:34:34;33.77;;;13.50;;
3779;SDS011;1905;52.482;9.802;2023-11-18T10:37:03;32.13;;;12.63;;
3779;SDS011;1905;52.482;9.802;2023-11-18T10:39:33;29.60;;;12.10;;
3779;SDS011;1905;52.482;9.802;2023-11-18T10:42:03;35.77;;;13.53;;
3779;SDS011;1905;52.482;9.802;2023-11-18T10:44:31;31.20;;;11.23;;
3779;SDS011;1905;52.482;9.802;2023-11-18T10:46:59;24.17;;;11.47;;
3779;SDS011;1905;52.482;9.802;2023-11-18T10:49:28;33.30;;;11.23;;
3779;SDS011;1905;52.482;9.802;2023-11-18T10:52:04;25.07;;;11.03;;
3779;SDS011;1905;52.482;9.802;2023-11-18T10:54:35;22.30;;;10.70;;
3779;SDS011;1905;52.482;9.802;2023-11-18T10:57:05;25.43;;;9.70;;
3779;SDS011;1905;52.482;9.802;2023-11-18T10:59:35;21.17;;;9.63;;
3779;SDS011;1905;52.482;9.802;2023-11-18T11:02:17;19.37;;;9.97;;
3779;SDS011;1905;52.482;9.802;2023-11-18T11:04:48;20.67;;;6.37;;
3779;SDS011;1905;52.482;9.802;2023-11-18T11:07:16;16.17;;;7.10;;
3779;SDS011;1905;52.482;9.802;2023-11-18T11:09:46;20.23;;;8.63;;
3779;SDS011;1905;52.482;9.802;2023-11-18T11:12:17;19.33;;;8.43;;
3779;SDS011;1905;52.482;9.802;2023-11-18T11:14:49;18.63;;;7.77;;
3779;SDS011;1905;52.482;9.802;2023-11-18T11:17:23;19.70;;;8.10;;
3779;SDS011;1905;52.482;9.802;2023-11-18T11:19:59;20.30;;;9.87;;
3779;SDS011;1905;52.482;9.802;2023-11-18T11:22:38;22.33;;;9.90;;
3779;SDS011;1905;52.482;9.802;2023-11-18T11:25:20;20.33;;;9.00;;
3779;SDS011;1905;52.482;9.802;2023-11-18T11:27:55;19.20;;;9.30;;
3779;SDS011;1905;52.482;9.802;2023-11-18T11:30:28;22.70;;;8.30;;
3779;SDS011;1905;52.482;9.802;2023-11-18T11:33:01;22.67;;;9.07;;
3779;SDS011;1905;52.482;9.802;2023-11-18T11:35:40;24.10;;;9.27;;
3779;SDS011;1905;52.482;9.802;2023-11-18T11:38:12;18.43;;;8.63;;
3779;SDS011;1905;52.482;9.802;2023-11-18T11:40:41;14.90;;;6.23;;
3779;SDS011;1905;52.482;9.802;2023-11-18T11:43:10;22.53;;;7.70;;
3779;SDS011;1905;52.482;9.802;2023-11-18T11:45:42;18.03;;;6.77;;
3779;SDS011;1905;52.482;9.802;2023-11-18T11:48:13;17.13;;;6.67;;
3779;SDS011;1905;52.482;9.802;2023-11-18T11:50:53;23.30;;;7.43;;
3779;SDS011;1905;52.482;9.802;2023-11-18T11:53:31;18.67;;;6.30;;
3779;SDS011;1905;52.482;9.802;2023-11-18T11:56:06;13.03;;;6.10;;
3779;SDS011;1905;52.482;9.802;2023-11-18T11:58:41;17.10;;;6.93;;
3779;SDS011;1905;52.482;9.802;2023-11-18T12:01:21;13.50;;;5.37;;
3779;SDS011;1905;52.482;9.802;2023-11-18T12:03:56;13.63;;;5.80;;
3779;SDS011;1905;52.482;9.802;2023-11-18T12:06:26;17.00;;;5.50;;
3779;SDS011;1905;52.482;9.802;2023-11-18T12:08:54;11.83;;;5.77;;
3779;SDS011;1905;52.482;9.802;2023-11-18T12:11:24;17.60;;;6.77;;
3779;SDS011;1905;52.482;9.802;2023-11-18T12:14:00;15.30;;;5.27;;
3779;SDS011;1905;52.482;9.802;2023-11-18T12:19:31;14.03;;;5.97;;
3779;SDS011;1905;52.482;9.802;2023-11-18T12:22:03;11.23;;;4.67;;
3779;SDS011;1905;52.482;9.802;2023-11-18T12:24:39;14.63;;;6.20;;
3779;SDS011;1905;52.482;9.802;2023-11-18T12:27:08;15.67;;;6.67;;
3779;SDS011;1905;52.482;9.802;2023-11-18T12:29:43;14.67;;;4.53;;
3779;SDS011;1905;52.482;9.802;2023-11-18T12:32:11;13.47;;;5.60;;
3779;SDS011;1905;52.482;9.802;2023-11-18T12:34:49;14.83;;;6.03;;
3779;SDS011;1905;52.482;9.802;2023-11-18T12:37:26;21.67;;;5.83;;
3779;SDS011;1905;52.482;9.802;2023-11-18T12:40:23;13.70;;;4.67;;
3779;SDS011;1905;52.482;9.802;2023-11-18T12:43:10;19.10;;;6.27;;
3779;SDS011;1905;52.482;9.802;2023-11-18T12:46:03;12.70;;;5.00;;
3779;SDS011;1905;52.482;9.802;2023-11-18T12:48:54;14.83;;;5.10;;
3779;SDS011;1905;52.482;9.802;2023-11-18T12:51:26;17.80;;;6.73;;
3779;SDS011;1905;52.482;9.802;2023-11-18T12:53:53;15.83;;;5.70;;
3779;SDS011;1905;52.482;9.802;2023-11-18T12:56:21;13.37;;;5.13;;
3779;SDS011;1905;52.482;9.802;2023-11-18T12:58:50;17.03;;;5.23;;
3779;SDS011;1905;52.482;9.802;2023-11-18T13:01:21;10.70;;;4.40;;
3779;SDS011;1905;52.482;9.802;2023-11-18T13:03:50;10.90;;;4.87;;
3779;SDS011;1905;52.482;9.802;2023-11-18T13:06:19;12.83;;;5.60;;
3779;SDS011;1905;52.482;9.802;2023-11-18T13:08:51;12.33;;;4.10;;
3779;SDS011;1905;52.482;9.802;2023-11-18T13:11:21;14.63;;;6.50;;
3779;SDS011;1905;52.482;9.802;2023-11-18T13:13:50;17.00;;;4.60;;
3779;SDS011;1905;52.482;9.802;2023-11-18T13:16:18;13.67;;;5.77;;
3779;SDS011;1905;52.482;9.802;2023-11-18T13:18:49;14.47;;;7.20;;
3779;SDS011;1905;52.482;9.802;2023-11-18T13:21:18;11.73;;;5.43;;
3779;SDS011;1905;52.482;9.802;2023-11-18T13:23:47;15.70;;;5.47;;
3779;SDS011;1905;52.482;9.802;2023-11-18T13:26:16;14.17;;;5.20;;
3779;SDS011;1905;52.482;9.802;2023-11-18T13:28:46;11.80;;;5.40;;
3779;SDS011;1905;52.482;9.802;2023-11-18T13:31:14;13.40;;;5.70;;
3779;SDS011;1905;52.482;9.802;2023-11-18T13:33:43;12.67;;;4.80;;
3779;SDS011;1905;52.482;9.802;2023-11-18T13:36:12;19.43;;;6.53;;
3779;SDS011;1905;52.482;9.802;2023-11-18T13:38:41;13.33;;;5.33;;
3779;SDS011;1905;52.482;9.802;2023-11-18T13:41:10;12.50;;;4.57;;
3779;SDS011;1905;52.482;9.802;2023-11-18T13:43:42;10.70;;;4.50;;
3779;SDS011;1905;52.482;9.802;2023-11-18T13:46:11;12.70;;;4.90;;
3779;SDS011;1905;52.482;9.802;2023-11-18T13:48:39;12.43;;;5.60;;
3779;SDS011;1905;52.482;9.802;2023-11-18T13:51:11;12.07;;;5.40;;
3779;SDS011;1905;52.482;9.802;2023-11-18T13:53:42;12.53;;;4.67;;
3779;SDS011;1905;52.482;9.802;2023-11-18T13:56:10;12.93;;;4.87;;
3779;SDS011;1905;52.482;9.802;2023-11-18T13:58:39;10.80;;;4.70;;
3779;SDS011;1905;52.482;9.802;2023-11-18T14:01:07;10.83;;;4.97;;
3779;SDS011;1905;52.482;9.802;2023-11-18T14:03:37;13.20;;;6.27;;
3779;SDS011;1905;52.482;9.802;2023-11-18T14:06:05;11.83;;;5.00;;
3779;SDS011;1905;52.482;9.802;2023-11-18T14:08:38;12.80;;;5.20;;
3779;SDS011;1905;52.482;9.802;2023-11-18T14:11:08;11.77;;;5.10;;
3779;SDS011;1905;52.482;9.802;2023-11-18T14:13:42;11.60;;;4.47;;
3779;SDS011;1905;52.482;9.802;2023-11-18T14:16:10;13.40;;;5.27;;
3779;SDS011;1905;52.482;9.802;2023-11-18T14:18:39;11.10;;;5.03;;
3779;SDS011;1905;52.482;9.802;2023-11-18T14:21:08;15.30;;;6.00;;
3779;SDS011;1905;52.482;9.802;2023-11-18T14:23:37;12.57;;;4.83;;
3779;SDS011;1905;52.482;9.802;2023-11-18T14:26:05;11.83;;;5.30;;
3779;SDS011;1905;52.482;9.802;2023-11-18T14:28:34;13.30;;;5.70;;
3779;SDS011;1905;52.482;9.802;2023-11-18T14:31:02;9.93;;;4.40;;
3779;SDS011;1905;52.482;9.802;2023-11-18T14:33:31;10.90;;;4.73;;
3779;SDS011;1905;52.482;9.802;2023-11-18T14:36:00;10.10;;;4.20;;
3779;SDS011;1905;52.482;9.802;2023-11-18T14:38:32;12.20;;;4.80;;
3779;SDS011;1905;52.482;9.802;2023-11-18T14:41:02;8.97;;;3.90;;
3779;SDS011;1905;52.482;9.802;2023-11-18T14:43:30;12.30;;;4.70;;
3779;SDS011;1905;52.482;9.802;2023-11-18T14:45:58;10.10;;;5.20;;
3779;SDS011;1905;52.482;9.802;2023-11-18T14:48:26;9.80;;;4.47;;
3779;SDS011;1905;52.482;9.802;2023-11-18T14:50:54;11.87;;;5.17;;
3779;SDS011;1905;52.482;9.802;2023-11-18T14:53:23;10.40;;;3.93;;
3779;SDS011;1905;52.482;9.802;2023-11-18T14:55:51;13.00;;;4.40;;
3779;SDS011;1905;52.482;9.802;2023-11-18T14:58:20;12.87;;;5.13;;
3779;SDS011;1905;52.482;9.802;2023-11-18T15:00:48;16.77;;;6.50;;
3779;SDS011;1905;52.482;9.802;2023-11-18T15:03:15;11.63;;;5.53;;
3779;SDS011;1905;52.482;9.802;2023-11-18T15:05:44;12.77;;;5.37;;
3779;SDS011;1905;52.482;9.802;2023-11-18T15:08:11;10.13;;;4.60;;
3779;SDS011;1905;52.482;9.802;2023-11-18T15:10:39;12.37;;;5.00;;
3779;SDS011;1905;52.482;9.802;2023-11-18T15:13:08;9.43;;;4.50;;
3779;SDS011;1905;52.482;9.802;2023-11-18T15:15:43;13.07;;;4.73;;
3779;SDS011;1905;52.482;9.802;2023-11-18T15:18:13;12.00;;;4.53;;
3779;SDS011;1905;52.482;9.802;2023-11-18T15:20:43;10.30;;;4.20;;